EDDL/DUS METAR and TAF weather

Enter ICAO airport designator
Station Type Date Time Source
EDDL METAR 2020/07/12 06:50 UTC NOAA

EDDL 120650Z 02006KT 9999 FEW020 15/11 Q1028 NOSIG


Station Type Date Time Source
EDDL Decoded METAR 2020/07/12 06:50 UTC NOAA

Duesseldorf, Germany (EDDL) 51-18N 006-46E 41M
Jul 12, 2020 - 02:50 AM EDT / 2020.07.12 0650 UTC
Wind: from the NNE (020 degrees) at 7 MPH (6 KT):0
Visibility: greater than 7 mile(s):0
Sky conditions: mostly clear
Temperature: 59 F (15 C)
Dew Point: 51 F (11 C)
Relative Humidity: 76%
Pressure (altimeter): 30.36 in. Hg (1028 hPa)
ob: EDDL 120650Z 02006KT 9999 FEW020 15/11 Q1028 NOSIG
cycle: 7

Station Type Date Time Source
EDDL TAF 2020/07/12 06:28 UTC NOAA

TAF EDDL 120500Z 1206/1312 VRB03KT CAVOK
BECMG 1207/1210 01006KT
BECMG 1219/1222 VRB03KT

Example: see airport list